sensor_id;sensor_type;location;lat;lon;timestamp;P1;durP1;ratioP1;P2;durP2;ratioP2
8413;SDS011;4244;48.684;9.028;2023-04-25T00:02:24;4.83;;;3.63;;
8413;SDS011;4244;48.684;9.028;2023-04-25T00:04:50;3.67;;;2.97;;
8413;SDS011;4244;48.684;9.028;2023-04-25T00:07:16;3.70;;;3.40;;
8413;SDS011;4244;48.684;9.028;2023-04-25T00:09:42;3.70;;;3.37;;
8413;SDS011;4244;48.684;9.028;2023-04-25T00:12:08;6.63;;;3.97;;
8413;SDS011;4244;48.684;9.028;2023-04-25T00:14:34;3.67;;;3.00;;
8413;SDS011;4244;48.684;9.028;2023-04-25T00:17:00;3.43;;;3.13;;
8413;SDS011;4244;48.684;9.028;2023-04-25T00:19:26;3.80;;;3.40;;
8413;SDS011;4244;48.684;9.028;2023-04-25T00:21:53;3.87;;;3.57;;
8413;SDS011;4244;48.684;9.028;2023-04-25T00:24:22;4.70;;;2.90;;
8413;SDS011;4244;48.684;9.028;2023-04-25T00:26:48;3.40;;;3.10;;
8413;SDS011;4244;48.684;9.028;2023-04-25T00:29:13;3.57;;;3.27;;
8413;SDS011;4244;48.684;9.028;2023-04-25T00:31:39;4.10;;;3.73;;
8413;SDS011;4244;48.684;9.028;2023-04-25T00:34:05;3.57;;;3.27;;
8413;SDS011;4244;48.684;9.028;2023-04-25T00:36:32;5.83;;;3.70;;
8413;SDS011;4244;48.684;9.028;2023-04-25T00:38:57;4.57;;;3.67;;
8413;SDS011;4244;48.684;9.028;2023-04-25T00:41:23;4.10;;;3.00;;
8413;SDS011;4244;48.684;9.028;2023-04-25T00:43:50;5.00;;;2.97;;
8413;SDS011;4244;48.684;9.028;2023-04-25T00:46:17;4.00;;;3.57;;
8413;SDS011;4244;48.684;9.028;2023-04-25T00:48:42;3.83;;;2.87;;
8413;SDS011;4244;48.684;9.028;2023-04-25T00:51:08;3.20;;;2.90;;
8413;SDS011;4244;48.684;9.028;2023-04-25T00:53:35;3.93;;;3.53;;
8413;SDS011;4244;48.684;9.028;2023-04-25T00:56:01;3.87;;;3.00;;
8413;SDS011;4244;48.684;9.028;2023-04-25T00:58:27;3.50;;;3.20;;
8413;SDS011;4244;48.684;9.028;2023-04-25T01:00:52;6.63;;;3.10;;
8413;SDS011;4244;48.684;9.028;2023-04-25T01:03:18;5.33;;;3.30;;
8413;SDS011;4244;48.684;9.028;2023-04-25T01:05:46;4.60;;;3.57;;
8413;SDS011;4244;48.684;9.028;2023-04-25T01:08:13;3.70;;;3.30;;
8413;SDS011;4244;48.684;9.028;2023-04-25T01:10:39;3.87;;;3.17;;
8413;SDS011;4244;48.684;9.028;2023-04-25T01:13:05;3.67;;;3.33;;
8413;SDS011;4244;48.684;9.028;2023-04-25T01:15:31;4.57;;;4.00;;
8413;SDS011;4244;48.684;9.028;2023-04-25T01:17:57;4.00;;;3.30;;
8413;SDS011;4244;48.684;9.028;2023-04-25T01:20:23;5.30;;;4.07;;
8413;SDS011;4244;48.684;9.028;2023-04-25T01:25:49;4.57;;;3.23;;
8413;SDS011;4244;48.684;9.028;2023-04-25T01:28:16;3.80;;;3.40;;
8413;SDS011;4244;48.684;9.028;2023-04-25T01:30:41;4.37;;;3.63;;
8413;SDS011;4244;48.684;9.028;2023-04-25T01:33:08;3.57;;;3.27;;
8413;SDS011;4244;48.684;9.028;2023-04-25T01:35:34;3.53;;;3.23;;
8413;SDS011;4244;48.684;9.028;2023-04-25T01:38:00;3.97;;;3.00;;
8413;SDS011;4244;48.684;9.028;2023-04-25T01:40:25;3.30;;;3.00;;
8413;SDS011;4244;48.684;9.028;2023-04-25T01:42:52;4.17;;;3.03;;
8413;SDS011;4244;48.684;9.028;2023-04-25T01:45:18;4.80;;;3.37;;
8413;SDS011;4244;48.684;9.028;2023-04-25T01:47:44;6.00;;;3.20;;
8413;SDS011;4244;48.684;9.028;2023-04-25T01:50:13;3.93;;;2.50;;
8413;SDS011;4244;48.684;9.028;2023-04-25T01:52:40;3.90;;;3.57;;
8413;SDS011;4244;48.684;9.028;2023-04-25T01:55:06;4.60;;;3.03;;
8413;SDS011;4244;48.684;9.028;2023-04-25T01:57:32;7.50;;;5.40;;
8413;SDS011;4244;48.684;9.028;2023-04-25T01:59:59;4.20;;;3.90;;
8413;SDS011;4244;48.684;9.028;2023-04-25T02:02:25;4.00;;;3.63;;
8413;SDS011;4244;48.684;9.028;2023-04-25T02:04:51;4.57;;;3.10;;
8413;SDS011;4244;48.684;9.028;2023-04-25T02:07:17;3.60;;;3.30;;
8413;SDS011;4244;48.684;9.028;2023-04-25T02:09:42;3.80;;;3.30;;
8413;SDS011;4244;48.684;9.028;2023-04-25T02:12:09;4.13;;;3.80;;
8413;SDS011;4244;48.684;9.028;2023-04-25T02:14:35;7.33;;;4.23;;
8413;SDS011;4244;48.684;9.028;2023-04-25T02:17:00;4.90;;;4.40;;
8413;SDS011;4244;48.684;9.028;2023-04-25T02:19:26;6.63;;;4.90;;
8413;SDS011;4244;48.684;9.028;2023-04-25T02:21:52;5.80;;;5.30;;
8413;SDS011;4244;48.684;9.028;2023-04-25T02:24:17;4.20;;;3.80;;
8413;SDS011;4244;48.684;9.028;2023-04-25T02:26:43;3.93;;;3.53;;
8413;SDS011;4244;48.684;9.028;2023-04-25T02:29:09;3.97;;;3.67;;
8413;SDS011;4244;48.684;9.028;2023-04-25T02:31:35;4.00;;;3.10;;
8413;SDS011;4244;48.684;9.028;2023-04-25T02:34:00;5.20;;;3.63;;
8413;SDS011;4244;48.684;9.028;2023-04-25T02:36:26;3.20;;;2.90;;
8413;SDS011;4244;48.684;9.028;2023-04-25T02:38:52;3.93;;;3.20;;
8413;SDS011;4244;48.684;9.028;2023-04-25T02:41:18;3.73;;;3.43;;
8413;SDS011;4244;48.684;9.028;2023-04-25T02:43:43;3.17;;;2.87;;
8413;SDS011;4244;48.684;9.028;2023-04-25T02:46:09;3.53;;;3.17;;
8413;SDS011;4244;48.684;9.028;2023-04-25T02:48:34;6.47;;;4.23;;
8413;SDS011;4244;48.684;9.028;2023-04-25T02:51:00;5.10;;;3.63;;
8413;SDS011;4244;48.684;9.028;2023-04-25T02:53:26;3.23;;;2.93;;
8413;SDS011;4244;48.684;9.028;2023-04-25T02:55:51;3.43;;;3.13;;
8413;SDS011;4244;48.684;9.028;2023-04-25T02:58:17;3.37;;;2.93;;
8413;SDS011;4244;48.684;9.028;2023-04-25T03:00:43;3.90;;;3.50;;
8413;SDS011;4244;48.684;9.028;2023-04-25T03:03:09;4.00;;;3.17;;
8413;SDS011;4244;48.684;9.028;2023-04-25T03:05:34;5.20;;;3.23;;
8413;SDS011;4244;48.684;9.028;2023-04-25T03:08:00;4.17;;;3.17;;
8413;SDS011;4244;48.684;9.028;2023-04-25T03:10:26;5.60;;;3.80;;
8413;SDS011;4244;48.684;9.028;2023-04-25T03:12:51;6.50;;;4.00;;
8413;SDS011;4244;48.684;9.028;2023-04-25T03:15:17;4.23;;;3.80;;
8413;SDS011;4244;48.684;9.028;2023-04-25T03:17:43;5.80;;;3.80;;
8413;SDS011;4244;48.684;9.028;2023-04-25T03:20:09;4.83;;;4.17;;
8413;SDS011;4244;48.684;9.028;2023-04-25T03:22:35;3.73;;;3.43;;
8413;SDS011;4244;48.684;9.028;2023-04-25T03:25:01;4.87;;;4.23;;
8413;SDS011;4244;48.684;9.028;2023-04-25T03:27:27;4.67;;;3.87;;
8413;SDS011;4244;48.684;9.028;2023-04-25T03:29:52;5.80;;;4.63;;
8413;SDS011;4244;48.684;9.028;2023-04-25T03:32:18;4.50;;;4.10;;
8413;SDS011;4244;48.684;9.028;2023-04-25T03:34:43;5.20;;;3.90;;
8413;SDS011;4244;48.684;9.028;2023-04-25T03:37:09;4.60;;;3.80;;
8413;SDS011;4244;48.684;9.028;2023-04-25T03:39:34;3.87;;;3.50;;
8413;SDS011;4244;48.684;9.028;2023-04-25T03:42:00;5.40;;;4.03;;
8413;SDS011;4244;48.684;9.028;2023-04-25T03:44:27;4.47;;;4.07;;
8413;SDS011;4244;48.684;9.028;2023-04-25T03:46:53;6.30;;;3.77;;
8413;SDS011;4244;48.684;9.028;2023-04-25T03:49:19;6.10;;;5.13;;
8413;SDS011;4244;48.684;9.028;2023-04-25T03:51:44;4.07;;;3.67;;
8413;SDS011;4244;48.684;9.028;2023-04-25T03:54:10;4.90;;;3.83;;
8413;SDS011;4244;48.684;9.028;2023-04-25T03:56:35;4.17;;;3.53;;
8413;SDS011;4244;48.684;9.028;2023-04-25T03:59:01;4.30;;;3.83;;
8413;SDS011;4244;48.684;9.028;2023-04-25T04:01:27;3.97;;;3.57;;
8413;SDS011;4244;48.684;9.028;2023-04-25T04:03:52;5.00;;;4.50;;
8413;SDS011;4244;48.684;9.028;2023-04-25T04:06:18;5.97;;;4.53;;
8413;SDS011;4244;48.684;9.028;2023-04-25T04:08:45;5.40;;;3.83;;
8413;SDS011;4244;48.684;9.028;2023-04-25T04:11:11;4.70;;;4.20;;
8413;SDS011;4244;48.684;9.028;2023-04-25T04:13:37;6.20;;;4.83;;
8413;SDS011;4244;48.684;9.028;2023-04-25T04:16:02;5.20;;;4.70;;
8413;SDS011;4244;48.684;9.028;2023-04-25T04:18:29;6.33;;;4.60;;
8413;SDS011;4244;48.684;9.028;2023-04-25T04:20:55;5.33;;;3.93;;
8413;SDS011;4244;48.684;9.028;2023-04-25T04:23:22;5.53;;;4.23;;
8413;SDS011;4244;48.684;9.028;2023-04-25T04:25:48;3.90;;;3.50;;
8413;SDS011;4244;48.684;9.028;2023-04-25T04:28:14;5.50;;;4.20;;
8413;SDS011;4244;48.684;9.028;2023-04-25T04:30:41;5.23;;;4.30;;
8413;SDS011;4244;48.684;9.028;2023-04-25T04:33:07;6.57;;;4.80;;
8413;SDS011;4244;48.684;9.028;2023-04-25T04:35:33;6.03;;;5.43;;
8413;SDS011;4244;48.684;9.028;2023-04-25T04:37:59;6.50;;;5.80;;
8413;SDS011;4244;48.684;9.028;2023-04-25T04:40:24;5.40;;;4.90;;
8413;SDS011;4244;48.684;9.028;2023-04-25T04:42:50;5.57;;;4.97;;
8413;SDS011;4244;48.684;9.028;2023-04-25T04:45:18;5.60;;;4.40;;
8413;SDS011;4244;48.684;9.028;2023-04-25T04:47:43;5.43;;;4.60;;
8413;SDS011;4244;48.684;9.028;2023-04-25T04:50:09;4.40;;;4.00;;
8413;SDS011;4244;48.684;9.028;2023-04-25T04:52:35;5.47;;;4.97;;
8413;SDS011;4244;48.684;9.028;2023-04-25T04:55:02;5.27;;;4.77;;
8413;SDS011;4244;48.684;9.028;2023-04-25T04:57:28;5.50;;;4.60;;
8413;SDS011;4244;48.684;9.028;2023-04-25T04:59:54;4.73;;;4.20;;
8413;SDS011;4244;48.684;9.028;2023-04-25T05:02:19;5.70;;;5.10;;
8413;SDS011;4244;48.684;9.028;2023-04-25T05:04:45;5.63;;;4.20;;
8413;SDS011;4244;48.684;9.028;2023-04-25T05:07:11;5.30;;;4.20;;
8413;SDS011;4244;48.684;9.028;2023-04-25T05:09:37;7.17;;;4.80;;
8413;SDS011;4244;48.684;9.028;2023-04-25T05:12:03;6.30;;;4.00;;
8413;SDS011;4244;48.684;9.028;2023-04-25T05:14:29;8.13;;;4.80;;
8413;SDS011;4244;48.684;9.028;2023-04-25T05:16:55;5.77;;;4.50;;
8413;SDS011;4244;48.684;9.028;2023-04-25T05:19:20;4.80;;;4.30;;
8413;SDS011;4244;48.684;9.028;2023-04-25T05:21:46;5.80;;;5.20;;
8413;SDS011;4244;48.684;9.028;2023-04-25T05:24:12;4.90;;;4.20;;
8413;SDS011;4244;48.684;9.028;2023-04-25T05:26:37;4.83;;;4.40;;
8413;SDS011;4244;48.684;9.028;2023-04-25T05:29:03;5.63;;;5.03;;
8413;SDS011;4244;48.684;9.028;2023-04-25T05:31:30;7.77;;;4.93;;
8413;SDS011;4244;48.684;9.028;2023-04-25T05:33:56;8.00;;;4.43;;
8413;SDS011;4244;48.684;9.028;2023-04-25T05:36:22;6.03;;;4.70;;
8413;SDS011;4244;48.684;9.028;2023-04-25T05:38:49;6.70;;;4.93;;
8413;SDS011;4244;48.684;9.028;2023-04-25T05:41:15;5.80;;;5.20;;
8413;SDS011;4244;48.684;9.028;2023-04-25T05:43:40;6.77;;;5.00;;
8413;SDS011;4244;48.684;9.028;2023-04-25T05:46:12;5.73;;;5.23;;
8413;SDS011;4244;48.684;9.028;2023-04-25T05:48:37;5.47;;;4.97;;
8413;SDS011;4244;48.684;9.028;2023-04-25T05:51:04;6.13;;;5.43;;
8413;SDS011;4244;48.684;9.028;2023-04-25T05:53:29;11.90;;;5.40;;
8413;SDS011;4244;48.684;9.028;2023-04-25T05:55:55;5.17;;;4.67;;
8413;SDS011;4244;48.684;9.028;2023-04-25T05:58:21;5.07;;;4.67;;
8413;SDS011;4244;48.684;9.028;2023-04-25T06:00:46;9.03;;;5.33;;
8413;SDS011;4244;48.684;9.028;2023-04-25T06:03:12;5.93;;;5.37;;
8413;SDS011;4244;48.684;9.028;2023-04-25T06:05:41;5.97;;;5.37;;
8413;SDS011;4244;48.684;9.028;2023-04-25T06:08:11;7.33;;;5.30;;
8413;SDS011;4244;48.684;9.028;2023-04-25T06:10:37;6.53;;;5.27;;
8413;SDS011;4244;48.684;9.028;2023-04-25T06:13:03;5.97;;;4.70;;
8413;SDS011;4244;48.684;9.028;2023-04-25T06:15:29;6.40;;;5.10;;
8413;SDS011;4244;48.684;9.028;2023-04-25T06:17:58;6.50;;;5.27;;
8413;SDS011;4244;48.684;9.028;2023-04-25T06:20:24;10.77;;;5.13;;
8413;SDS011;4244;48.684;9.028;2023-04-25T06:22:50;5.40;;;4.30;;
8413;SDS011;4244;48.684;9.028;2023-04-25T06:25:18;5.83;;;5.23;;
8413;SDS011;4244;48.684;9.028;2023-04-25T06:27:44;6.57;;;5.73;;
8413;SDS011;4244;48.684;9.028;2023-04-25T06:30:10;6.07;;;5.23;;
8413;SDS011;4244;48.684;9.028;2023-04-25T06:32:37;6.30;;;5.03;;
8413;SDS011;4244;48.684;9.028;2023-04-25T06:35:05;6.30;;;5.70;;
8413;SDS011;4244;48.684;9.028;2023-04-25T06:37:31;5.30;;;4.80;;
8413;SDS011;4244;48.684;9.028;2023-04-25T06:39:57;7.03;;;5.53;;
8413;SDS011;4244;48.684;9.028;2023-04-25T06:42:22;4.90;;;4.40;;
8413;SDS011;4244;48.684;9.028;2023-04-25T06:44:48;7.27;;;5.60;;
8413;SDS011;4244;48.684;9.028;2023-04-25T06:47:14;5.63;;;5.10;;
8413;SDS011;4244;48.684;9.028;2023-04-25T06:49:39;5.33;;;4.83;;
8413;SDS011;4244;48.684;9.028;2023-04-25T06:52:05;5.70;;;5.17;;
8413;SDS011;4244;48.684;9.028;2023-04-25T06:54:31;5.80;;;5.20;;
8413;SDS011;4244;48.684;9.028;2023-04-25T06:56:56;5.17;;;4.67;;
8413;SDS011;4244;48.684;9.028;2023-04-25T06:59:22;6.00;;;5.40;;
8413;SDS011;4244;48.684;9.028;2023-04-25T07:01:48;7.50;;;5.63;;
8413;SDS011;4244;48.684;9.028;2023-04-25T07:04:13;6.73;;;5.63;;
8413;SDS011;4244;48.684;9.028;2023-04-25T07:06:39;6.77;;;5.07;;
8413;SDS011;4244;48.684;9.028;2023-04-25T07:09:10;5.13;;;4.73;;
8413;SDS011;4244;48.684;9.028;2023-04-25T07:11:36;6.17;;;5.57;;
8413;SDS011;4244;48.684;9.028;2023-04-25T07:14:02;6.90;;;6.20;;
8413;SDS011;4244;48.684;9.028;2023-04-25T07:16:28;6.80;;;6.10;;
8413;SDS011;4244;48.684;9.028;2023-04-25T07:18:53;5.43;;;4.27;;
8413;SDS011;4244;48.684;9.028;2023-04-25T07:21:19;6.53;;;5.10;;
8413;SDS011;4244;48.684;9.028;2023-04-25T07:23:45;5.80;;;5.20;;
8413;SDS011;4244;48.684;9.028;2023-04-25T07:26:11;5.47;;;4.90;;
8413;SDS011;4244;48.684;9.028;2023-04-25T07:28:37;6.13;;;5.63;;
8413;SDS011;4244;48.684;9.028;2023-04-25T07:31:02;8.53;;;5.67;;
8413;SDS011;4244;48.684;9.028;2023-04-25T07:33:28;5.87;;;5.37;;
8413;SDS011;4244;48.684;9.028;2023-04-25T07:35:54;5.93;;;5.13;;
8413;SDS011;4244;48.684;9.028;2023-04-25T07:38:20;6.87;;;6.20;;
8413;SDS011;4244;48.684;9.028;2023-04-25T07:40:49;5.93;;;5.43;;
8413;SDS011;4244;48.684;9.028;2023-04-25T07:43:15;6.87;;;5.00;;
8413;SDS011;4244;48.684;9.028;2023-04-25T07:45:41;5.57;;;5.07;;
8413;SDS011;4244;48.684;9.028;2023-04-25T07:48:08;5.10;;;4.60;;
8413;SDS011;4244;48.684;9.028;2023-04-25T07:50:33;4.97;;;4.47;;
8413;SDS011;4244;48.684;9.028;2023-04-25T07:52:59;5.30;;;4.80;;
8413;SDS011;4244;48.684;9.028;2023-04-25T07:55:24;5.50;;;4.60;;
8413;SDS011;4244;48.684;9.028;2023-04-25T07:57:50;5.20;;;4.80;;
8413;SDS011;4244;48.684;9.028;2023-04-25T08:00:16;6.00;;;5.17;;
8413;SDS011;4244;48.684;9.028;2023-04-25T08:02:42;5.97;;;5.37;;
8413;SDS011;4244;48.684;9.028;2023-04-25T08:05:07;6.43;;;5.20;;
8413;SDS011;4244;48.684;9.028;2023-04-25T08:07:36;5.80;;;5.30;;
8413;SDS011;4244;48.684;9.028;2023-04-25T08:10:02;5.30;;;4.80;;
8413;SDS011;4244;48.684;9.028;2023-04-25T08:12:28;4.57;;;4.27;;
8413;SDS011;4244;48.684;9.028;2023-04-25T08:14:54;5.70;;;4.83;;
8413;SDS011;4244;48.684;9.028;2023-04-25T08:17:19;4.93;;;4.33;;
8413;SDS011;4244;48.684;9.028;2023-04-25T08:19:45;4.80;;;4.30;;
8413;SDS011;4244;48.684;9.028;2023-04-25T08:22:10;5.20;;;4.70;;
8413;SDS011;4244;48.684;9.028;2023-04-25T08:24:37;7.20;;;5.23;;
8413;SDS011;4244;48.684;9.028;2023-04-25T08:27:03;6.13;;;5.37;;
8413;SDS011;4244;48.684;9.028;2023-04-25T08:29:28;6.20;;;5.60;;
8413;SDS011;4244;48.684;9.028;2023-04-25T08:31:54;7.00;;;5.13;;
8413;SDS011;4244;48.684;9.028;2023-04-25T08:34:20;5.50;;;5.00;;
8413;SDS011;4244;48.684;9.028;2023-04-25T08:36:45;5.97;;;5.37;;
8413;SDS011;4244;48.684;9.028;2023-04-25T08:39:11;6.73;;;6.13;;
8413;SDS011;4244;48.684;9.028;2023-04-25T08:41:38;6.63;;;6.03;;
8413;SDS011;4244;48.684;9.028;2023-04-25T08:44:03;6.60;;;6.00;;
8413;SDS011;4244;48.684;9.028;2023-04-25T08:46:30;6.87;;;6.17;;
8413;SDS011;4244;48.684;9.028;2023-04-25T08:48:58;7.10;;;6.40;;
8413;SDS011;4244;48.684;9.028;2023-04-25T08:51:26;6.33;;;5.73;;
8413;SDS011;4244;48.684;9.028;2023-04-25T08:53:53;7.07;;;6.37;;
8413;SDS011;4244;48.684;9.028;2023-04-25T08:56:18;7.73;;;6.47;;
8413;SDS011;4244;48.684;9.028;2023-04-25T08:58:50;9.50;;;5.90;;
8413;SDS011;4244;48.684;9.028;2023-04-25T09:01:16;6.50;;;5.90;;
8413;SDS011;4244;48.684;9.028;2023-04-25T09:03:43;6.60;;;6.00;;
8413;SDS011;4244;48.684;9.028;2023-04-25T09:06:10;6.67;;;6.00;;
8413;SDS011;4244;48.684;9.028;2023-04-25T09:08:36;6.40;;;5.80;;
8413;SDS011;4244;48.684;9.028;2023-04-25T09:11:03;6.63;;;5.90;;
8413;SDS011;4244;48.684;9.028;2023-04-25T09:13:29;6.40;;;5.80;;
8413;SDS011;4244;48.684;9.028;2023-04-25T09:15:55;6.40;;;5.80;;
8413;SDS011;4244;48.684;9.028;2023-04-25T09:20:53;6.43;;;5.83;;
8413;SDS011;4244;48.684;9.028;2023-04-25T09:23:19;7.73;;;6.93;;
8413;SDS011;4244;48.684;9.028;2023-04-25T09:25:50;6.47;;;5.87;;
8413;SDS011;4244;48.684;9.028;2023-04-25T09:28:18;5.23;;;4.73;;
8413;SDS011;4244;48.684;9.028;2023-04-25T09:30:48;5.37;;;4.87;;
8413;SDS011;4244;48.684;9.028;2023-04-25T09:33:14;6.10;;;5.20;;
8413;SDS011;4244;48.684;9.028;2023-04-25T09:35:43;5.00;;;4.50;;
8413;SDS011;4244;48.684;9.028;2023-04-25T09:38:10;4.73;;;4.20;;
8413;SDS011;4244;48.684;9.028;2023-04-25T09:43:24;4.57;;;4.00;;
8413;SDS011;4244;48.684;9.028;2023-04-25T09:45:50;3.03;;;2.73;;
8413;SDS011;4244;48.684;9.028;2023-04-25T09:48:19;3.60;;;3.27;;
8413;SDS011;4244;48.684;9.028;2023-04-25T09:51:31;2.47;;;2.17;;
8413;SDS011;4244;48.684;9.028;2023-04-25T09:53:39;1.70;;;1.50;;
8413;SDS011;4244;48.684;9.028;2023-04-25T09:56:06;2.77;;;1.97;;
8413;SDS011;4244;48.684;9.028;2023-04-25T09:58:32;1.70;;;1.57;;
8413;SDS011;4244;48.684;9.028;2023-04-25T10:01:00;2.17;;;1.50;;
8413;SDS011;4244;48.684;9.028;2023-04-25T10:03:29;3.00;;;1.73;;
8413;SDS011;4244;48.684;9.028;2023-04-25T10:05:56;2.67;;;1.90;;
8413;SDS011;4244;48.684;9.028;2023-04-25T10:08:24;1.60;;;1.40;;
8413;SDS011;4244;48.684;9.028;2023-04-25T10:10:51;2.33;;;1.60;;
8413;SDS011;4244;48.684;9.028;2023-04-25T10:13:17;1.70;;;1.33;;
8413;SDS011;4244;48.684;9.028;2023-04-25T10:15:43;1.50;;;1.03;;
8413;SDS011;4244;48.684;9.028;2023-04-25T10:18:09;1.10;;;0.77;;
8413;SDS011;4244;48.684;9.028;2023-04-25T10:20:35;2.23;;;1.00;;
8413;SDS011;4244;48.684;9.028;2023-04-25T10:23:03;1.43;;;1.10;;
8413;SDS011;4244;48.684;9.028;2023-04-25T10:25:40;1.93;;;0.90;;
8413;SDS011;4244;48.684;9.028;2023-04-25T10:28:05;1.10;;;0.83;;
8413;SDS011;4244;48.684;9.028;2023-04-25T10:30:31;1.00;;;0.60;;
8413;SDS011;4244;48.684;9.028;2023-04-25T10:32:58;1.30;;;0.70;;
8413;SDS011;4244;48.684;9.028;2023-04-25T10:35:29;1.23;;;0.80;;
8413;SDS011;4244;48.684;9.028;2023-04-25T10:38:05;1.70;;;0.83;;
8413;SDS011;4244;48.684;9.028;2023-04-25T10:40:34;1.97;;;0.90;;
8413;SDS011;4244;48.684;9.028;2023-04-25T10:45:57;1.80;;;1.20;;
8413;SDS011;4244;48.684;9.028;2023-04-25T10:48:28;1.27;;;0.90;;
8413;SDS011;4244;48.684;9.028;2023-04-25T10:51:07;1.57;;;1.03;;
8413;SDS011;4244;48.684;9.028;2023-04-25T10:53:34;1.40;;;0.90;;
8413;SDS011;4244;48.684;9.028;2023-04-25T10:56:00;1.87;;;0.90;;
8413;SDS011;4244;48.684;9.028;2023-04-25T10:58:25;1.40;;;0.90;;
8413;SDS011;4244;48.684;9.028;2023-04-25T11:00:51;3.43;;;3.13;;
8413;SDS011;4244;48.684;9.028;2023-04-25T11:03:17;9.27;;;8.57;;
8413;SDS011;4244;48.684;9.028;2023-04-25T11:05:42;1.00;;;0.83;;
8413;SDS011;4244;48.684;9.028;2023-04-25T11:08:10;1.63;;;1.50;;
8413;SDS011;4244;48.684;9.028;2023-04-25T11:10:36;1.40;;;1.00;;
8413;SDS011;4244;48.684;9.028;2023-04-25T11:13:02;1.43;;;0.83;;
8413;SDS011;4244;48.684;9.028;2023-04-25T11:15:28;2.30;;;1.00;;
8413;SDS011;4244;48.684;9.028;2023-04-25T11:17:54;1.30;;;1.07;;
8413;SDS011;4244;48.684;9.028;2023-04-25T11:20:20;1.63;;;1.03;;
8413;SDS011;4244;48.684;9.028;2023-04-25T11:22:46;1.30;;;0.80;;
8413;SDS011;4244;48.684;9.028;2023-04-25T11:25:13;2.70;;;1.17;;
8413;SDS011;4244;48.684;9.028;2023-04-25T11:27:50;1.53;;;0.90;;
8413;SDS011;4244;48.684;9.028;2023-04-25T11:30:20;6.00;;;5.60;;
8413;SDS011;4244;48.684;9.028;2023-04-25T11:32:46;3.13;;;2.80;;
8413;SDS011;4244;48.684;9.028;2023-04-25T11:35:13;3.23;;;2.20;;
8413;SDS011;4244;48.684;9.028;2023-04-25T11:37:39;9.43;;;5.80;;
8413;SDS011;4244;48.684;9.028;2023-04-25T11:40:05;19.03;;;11.23;;
8413;SDS011;4244;48.684;9.028;2023-04-25T11:42:32;18.10;;;10.80;;
8413;SDS011;4244;48.684;9.028;2023-04-25T11:44:58;8.73;;;6.30;;
8413;SDS011;4244;48.684;9.028;2023-04-25T11:47:29;10.00;;;7.53;;
8413;SDS011;4244;48.684;9.028;2023-04-25T11:49:58;5.87;;;4.20;;
8413;SDS011;4244;48.684;9.028;2023-04-25T11:52:25;9.37;;;6.50;;
8413;SDS011;4244;48.684;9.028;2023-04-25T11:55:04;5.40;;;4.47;;
8413;SDS011;4244;48.684;9.028;2023-04-25T11:57:31;8.07;;;5.77;;
8413;SDS011;4244;48.684;9.028;2023-04-25T12:00:04;4.40;;;3.83;;
8413;SDS011;4244;48.684;9.028;2023-04-25T12:02:37;7.30;;;5.40;;
8413;SDS011;4244;48.684;9.028;2023-04-25T12:05:06;3.13;;;2.83;;
8413;SDS011;4244;48.684;9.028;2023-04-25T12:07:33;4.30;;;3.30;;
8413;SDS011;4244;48.684;9.028;2023-04-25T12:09:59;5.03;;;3.83;;
8413;SDS011;4244;48.684;9.028;2023-04-25T12:12:32;4.80;;;4.20;;
8413;SDS011;4244;48.684;9.028;2023-04-25T12:15:07;11.13;;;6.33;;
8413;SDS011;4244;48.684;9.028;2023-04-25T12:17:38;5.60;;;4.03;;
8413;SDS011;4244;48.684;9.028;2023-04-25T12:20:07;3.20;;;2.90;;
8413;SDS011;4244;48.684;9.028;2023-04-25T12:22:34;5.10;;;4.57;;
8413;SDS011;4244;48.684;9.028;2023-04-25T12:25:01;31.67;;;17.70;;
8413;SDS011;4244;48.684;9.028;2023-04-25T12:27:30;7.27;;;6.17;;
8413;SDS011;4244;48.684;9.028;2023-04-25T12:29:57;6.50;;;5.23;;
8413;SDS011;4244;48.684;9.028;2023-04-25T12:32:23;12.57;;;10.33;;
8413;SDS011;4244;48.684;9.028;2023-04-25T12:34:50;13.03;;;9.60;;
8413;SDS011;4244;48.684;9.028;2023-04-25T12:37:15;8.50;;;7.67;;
8413;SDS011;4244;48.684;9.028;2023-04-25T12:39:41;8.27;;;7.30;;
8413;SDS011;4244;48.684;9.028;2023-04-25T12:42:06;6.20;;;5.60;;
8413;SDS011;4244;48.684;9.028;2023-04-25T12:44:38;5.87;;;5.37;;
8413;SDS011;4244;48.684;9.028;2023-04-25T12:47:04;16.30;;;9.57;;
8413;SDS011;4244;48.684;9.028;2023-04-25T12:49:30;6.77;;;6.07;;
8413;SDS011;4244;48.684;9.028;2023-04-25T12:51:56;5.90;;;5.40;;
8413;SDS011;4244;48.684;9.028;2023-04-25T12:54:22;11.60;;;8.33;;
8413;SDS011;4244;48.684;9.028;2023-04-25T12:56:48;6.37;;;5.77;;
8413;SDS011;4244;48.684;9.028;2023-04-25T12:59:15;5.70;;;5.23;;
8413;SDS011;4244;48.684;9.028;2023-04-25T13:01:40;6.37;;;5.77;;
8413;SDS011;4244;48.684;9.028;2023-04-25T13:04:06;7.10;;;5.80;;
8413;SDS011;4244;48.684;9.028;2023-04-25T13:06:31;6.57;;;6.00;;
8413;SDS011;4244;48.684;9.028;2023-04-25T13:08:57;8.20;;;6.57;;
8413;SDS011;4244;48.684;9.028;2023-04-25T13:11:23;7.27;;;6.60;;
8413;SDS011;4244;48.684;9.028;2023-04-25T13:13:48;7.93;;;6.43;;
8413;SDS011;4244;48.684;9.028;2023-04-25T13:16:14;6.90;;;6.20;;
8413;SDS011;4244;48.684;9.028;2023-04-25T13:18:40;7.00;;;5.80;;
8413;SDS011;4244;48.684;9.028;2023-04-25T13:21:06;7.07;;;6.37;;
8413;SDS011;4244;48.684;9.028;2023-04-25T13:23:31;7.83;;;6.83;;
8413;SDS011;4244;48.684;9.028;2023-04-25T13:25:58;9.40;;;8.00;;
8413;SDS011;4244;48.684;9.028;2023-04-25T13:28:25;8.53;;;7.00;;
8413;SDS011;4244;48.684;9.028;2023-04-25T13:30:51;8.07;;;6.60;;
8413;SDS011;4244;48.684;9.028;2023-04-25T13:33:17;7.00;;;6.30;;
8413;SDS011;4244;48.684;9.028;2023-04-25T13:35:44;11.40;;;7.63;;
8413;SDS011;4244;48.684;9.028;2023-04-25T13:38:18;9.80;;;7.90;;
8413;SDS011;4244;48.684;9.028;2023-04-25T13:40:47;9.50;;;8.53;;
8413;SDS011;4244;48.684;9.028;2023-04-25T13:43:13;9.13;;;7.63;;
8413;SDS011;4244;48.684;9.028;2023-04-25T13:45:39;7.67;;;6.97;;
8413;SDS011;4244;48.684;9.028;2023-04-25T13:48:07;8.63;;;7.60;;
8413;SDS011;4244;48.684;9.028;2023-04-25T13:50:33;8.03;;;7.23;;
8413;SDS011;4244;48.684;9.028;2023-04-25T13:52:59;7.40;;;6.70;;
8413;SDS011;4244;48.684;9.028;2023-04-25T13:55:25;7.83;;;7.13;;
8413;SDS011;4244;48.684;9.028;2023-04-25T13:57:51;8.23;;;7.53;;
8413;SDS011;4244;48.684;9.028;2023-04-25T14:00:17;7.37;;;6.67;;
8413;SDS011;4244;48.684;9.028;2023-04-25T14:02:43;10.17;;;7.23;;
8413;SDS011;4244;48.684;9.028;2023-04-25T14:05:08;8.00;;;7.23;;
8413;SDS011;4244;48.684;9.028;2023-04-25T14:07:34;9.57;;;8.00;;
8413;SDS011;4244;48.684;9.028;2023-04-25T14:10:01;8.90;;;8.10;;
8413;SDS011;4244;48.684;9.028;2023-04-25T14:12:29;9.50;;;8.60;;
8413;SDS011;4244;48.684;9.028;2023-04-25T14:14:55;8.33;;;7.60;;
8413;SDS011;4244;48.684;9.028;2023-04-25T14:17:21;8.87;;;8.03;;
8413;SDS011;4244;48.684;9.028;2023-04-25T14:19:46;8.93;;;7.40;;
8413;SDS011;4244;48.684;9.028;2023-04-25T14:22:13;8.67;;;7.83;;
8413;SDS011;4244;48.684;9.028;2023-04-25T14:24:40;7.43;;;6.70;;
8413;SDS011;4244;48.684;9.028;2023-04-25T14:27:06;7.00;;;6.40;;
8413;SDS011;4244;48.684;9.028;2023-04-25T14:29:32;7.80;;;7.03;;
8413;SDS011;4244;48.684;9.028;2023-04-25T14:31:57;8.43;;;7.00;;
8413;SDS011;4244;48.684;9.028;2023-04-25T14:34:24;8.57;;;7.57;;
8413;SDS011;4244;48.684;9.028;2023-04-25T14:36:50;7.50;;;6.60;;
8413;SDS011;4244;48.684;9.028;2023-04-25T14:39:16;7.30;;;6.60;;
8413;SDS011;4244;48.684;9.028;2023-04-25T14:41:43;6.43;;;5.93;;
8413;SDS011;4244;48.684;9.028;2023-04-25T14:44:09;6.77;;;6.07;;
8413;SDS011;4244;48.684;9.028;2023-04-25T14:46:34;6.30;;;5.60;;
8413;SDS011;4244;48.684;9.028;2023-04-25T14:49:00;7.40;;;6.40;;
8413;SDS011;4244;48.684;9.028;2023-04-25T14:51:26;21.73;;;14.80;;
8413;SDS011;4244;48.684;9.028;2023-04-25T14:53:52;22.87;;;16.13;;
8413;SDS011;4244;48.684;9.028;2023-04-25T14:56:18;14.10;;;11.80;;
8413;SDS011;4244;48.684;9.028;2023-04-25T14:58:43;5.97;;;5.47;;
8413;SDS011;4244;48.684;9.028;2023-04-25T15:01:10;5.13;;;4.63;;
8413;SDS011;4244;48.684;9.028;2023-04-25T15:03:37;6.77;;;6.27;;
8413;SDS011;4244;48.684;9.028;2023-04-25T15:06:03;6.17;;;5.63;;
8413;SDS011;4244;48.684;9.028;2023-04-25T15:08:31;5.60;;;5.10;;
8413;SDS011;4244;48.684;9.028;2023-04-25T15:10:57;4.40;;;4.00;;
8413;SDS011;4244;48.684;9.028;2023-04-25T15:13:22;5.43;;;4.97;;
8413;SDS011;4244;48.684;9.028;2023-04-25T15:15:48;5.40;;;4.70;;
8413;SDS011;4244;48.684;9.028;2023-04-25T15:18:16;4.17;;;3.77;;
8413;SDS011;4244;48.684;9.028;2023-04-25T15:20:43;4.13;;;3.80;;
8413;SDS011;4244;48.684;9.028;2023-04-25T15:23:09;3.90;;;3.20;;